sim
Sign-in with your pilot id or email,
or register
Callsign
Passwort

Schedule Details

Flight Number: OEO1952
Departure: Madrid Barajas Airport (LEMD) at 09:55
Arrival: Fuerteventura Airport (GCFV) at 12:45

Weather Information
Getting current METAR information for LEMD 222300Z 12006KT 070V150 CAVOK 30/09 Q1019 NOSIG
Getting current METAR information for GCFV 222300Z AUTO 36018KT 9999 NCD 21/17 Q1018

Schedule Frequency

Route Map